createdAt,value
2022-08-05T00:01:27.691Z,9.43
2022-08-05T00:03:56.916Z,8.85
2022-08-05T00:06:32.434Z,9.30
2022-08-05T00:09:00.497Z,10.00
2022-08-05T00:11:34.591Z,11.95
2022-08-05T00:14:02.399Z,11.82
2022-08-05T00:16:52.476Z,11.52
2022-08-05T00:19:25.014Z,10.40
2022-08-05T00:22:00.750Z,9.43
2022-08-05T00:24:31.123Z,10.50
2022-08-05T00:26:59.417Z,13.57
2022-08-05T00:29:27.551Z,14.00
2022-08-05T00:32:12.742Z,14.75
2022-08-05T00:35:05.582Z,16.92
2022-08-05T00:37:51.056Z,17.73
2022-08-05T00:40:17.913Z,17.10
2022-08-05T00:42:55.000Z,23.45
2022-08-05T00:45:28.399Z,22.25
2022-08-05T00:48:07.611Z,24.48
2022-08-05T00:50:34.358Z,24.98
2022-08-05T00:53:02.427Z,35.75
2022-08-05T00:55:42.428Z,31.42
2022-08-05T00:58:16.813Z,31.70
2022-08-05T01:00:47.623Z,35.45
2022-08-05T01:03:22.756Z,33.05
2022-08-05T01:05:50.554Z,32.65
2022-08-05T01:08:41.801Z,29.80
2022-08-05T01:11:37.027Z,32.97
2022-08-05T01:14:28.889Z,39.20
2022-08-05T01:17:04.623Z,40.13
2022-08-05T01:20:00.863Z,39.30
2022-08-05T01:22:46.891Z,33.72
2022-08-05T01:25:53.225Z,35.20
2022-08-05T01:28:26.638Z,27.38
2022-08-05T01:31:11.562Z,36.88
2022-08-05T01:33:54.076Z,27.58
2022-08-05T01:36:28.097Z,31.60
2022-08-05T01:38:56.177Z,32.40
2022-08-05T01:41:25.778Z,27.27
2022-08-05T01:43:54.571Z,23.13
2022-08-05T01:46:41.442Z,26.13
2022-08-05T01:49:23.025Z,27.67
2022-08-05T01:51:55.807Z,24.25
2022-08-05T01:54:25.575Z,26.73
2022-08-05T01:58:10.132Z,22.20
2022-08-05T01:59:41.154Z,22.10
2022-08-05T02:02:16.006Z,23.08
2022-08-05T02:04:46.314Z,24.10
2022-08-05T02:07:21.967Z,19.15
2022-08-05T02:09:49.898Z,24.77
2022-08-05T02:12:51.426Z,25.50
2022-08-05T02:15:33.372Z,23.38
2022-08-05T02:18:33.210Z,19.83
2022-08-05T02:21:06.410Z,20.88
2022-08-05T02:23:44.672Z,22.75
2022-08-05T02:26:17.186Z,22.17
2022-08-05T02:28:46.303Z,22.92
2022-08-05T02:31:21.034Z,15.30
2022-08-05T02:33:57.513Z,18.80
2022-08-05T02:36:27.313Z,19.00
2022-08-05T02:38:57.580Z,16.33
2022-08-05T02:41:28.880Z,18.17
2022-08-05T02:44:13.312Z,17.10
2022-08-05T02:46:53.240Z,17.70
2022-08-05T02:49:27.446Z,19.45
2022-08-05T02:52:06.902Z,19.95
2022-08-05T02:54:37.049Z,20.35
2022-08-05T02:57:10.130Z,20.25
2022-08-05T02:59:55.133Z,17.27
2022-08-05T03:02:27.554Z,21.15
2022-08-05T03:04:57.164Z,15.35
2022-08-05T03:08:00.526Z,13.98
2022-08-05T03:10:15.540Z,18.20
2022-08-05T03:12:51.765Z,15.95
2022-08-05T03:15:19.935Z,17.98
2022-08-05T03:17:46.490Z,17.13
2022-08-05T03:20:13.428Z,24.00
2022-08-05T03:22:44.014Z,18.30
2022-08-05T03:25:33.587Z,19.95
2022-08-05T03:28:01.681Z,13.98
2022-08-05T03:30:33.961Z,21.13
2022-08-05T03:33:02.935Z,16.75
2022-08-05T03:35:30.954Z,16.85
2022-08-05T03:38:00.984Z,17.90
2022-08-05T03:40:31.864Z,16.58
2022-08-05T03:42:59.535Z,14.50
2022-08-05T03:45:57.682Z,15.05
2022-08-05T03:48:29.175Z,20.65
2022-08-05T03:52:37.938Z,25.05
2022-08-05T03:55:52.518Z,21.42
2022-08-05T03:57:00.121Z,21.30
2022-08-05T03:59:46.746Z,19.73
2022-08-05T04:02:17.559Z,19.05
2022-08-05T04:05:05.590Z,17.33
2022-08-05T04:07:51.374Z,19.00
2022-08-05T04:10:27.813Z,17.95
2022-08-05T04:12:55.451Z,18.60
2022-08-05T04:15:26.252Z,23.70
2022-08-05T04:17:56.132Z,19.48
2022-08-05T04:20:24.464Z,22.88
2022-08-05T04:22:51.138Z,22.55
2022-08-05T04:25:18.009Z,20.05
2022-08-05T04:27:58.070Z,20.08
2022-08-05T04:30:26.652Z,17.00
2022-08-05T04:32:53.354Z,16.27
2022-08-05T04:35:20.159Z,14.70
2022-08-05T04:38:00.672Z,19.98
2022-08-05T04:40:28.338Z,16.25
2022-08-05T04:42:56.070Z,14.43
2022-08-05T04:45:47.795Z,19.95
2022-08-05T04:48:18.387Z,17.55
2022-08-05T04:51:02.654Z,16.88
2022-08-05T04:53:38.615Z,21.90
2022-08-05T04:56:33.654Z,20.60
2022-08-05T04:58:55.754Z,18.52
2022-08-05T05:01:33.581Z,17.23
2022-08-05T05:04:00.616Z,17.52
2022-08-05T05:06:36.528Z,16.75
2022-08-05T05:09:17.537Z,20.95
2022-08-05T05:11:54.102Z,20.20
2022-08-05T05:14:31.653Z,20.05
2022-08-05T05:17:00.465Z,20.58
2022-08-05T05:19:36.346Z,19.55
2022-08-05T05:22:03.637Z,16.35
2022-08-05T05:24:57.510Z,20.52
2022-08-05T05:27:45.144Z,17.23
2022-08-05T05:30:29.817Z,18.80
2022-08-05T05:33:09.080Z,20.75
2022-08-05T05:35:44.926Z,21.63
2022-08-05T05:38:13.178Z,22.30
2022-08-05T05:40:48.093Z,24.40
2022-08-05T05:43:22.079Z,20.67
2022-08-05T05:46:03.503Z,19.25
2022-08-05T05:48:31.794Z,27.02
2022-08-05T05:50:58.360Z,20.38
2022-08-05T05:53:24.899Z,20.92
2022-08-05T05:56:01.018Z,17.75
2022-08-05T05:58:30.149Z,23.00
2022-08-05T06:01:02.485Z,21.90
2022-08-05T06:03:53.988Z,19.02
2022-08-05T06:06:28.011Z,18.70
2022-08-05T06:08:58.158Z,18.10
2022-08-05T06:11:24.919Z,20.42
2022-08-05T06:13:55.322Z,20.75
2022-08-05T06:16:28.660Z,23.35
2022-08-05T06:19:00.902Z,19.83
2022-08-05T06:21:35.999Z,19.00
2022-08-05T06:24:06.283Z,23.48
2022-08-05T06:26:38.169Z,21.58
2022-08-05T06:29:06.453Z,18.20
2022-08-05T06:31:51.926Z,15.63
2022-08-05T06:34:20.122Z,17.52
2022-08-05T06:36:57.398Z,18.60
2022-08-05T06:39:27.263Z,15.75
2022-08-05T06:41:55.382Z,13.65
2022-08-05T06:44:22.395Z,14.15
2022-08-05T06:46:51.104Z,13.50
2022-08-05T06:49:18.982Z,13.90
2022-08-05T06:51:48.507Z,13.70
2022-08-05T06:54:19.290Z,10.75
2022-08-05T06:56:54.968Z,10.15
2022-08-05T06:59:42.200Z,14.38
2022-08-05T07:02:15.244Z,13.05
2022-08-05T07:04:49.418Z,9.25
2022-08-05T07:07:35.295Z,11.95
2022-08-05T07:10:06.064Z,8.30
2022-08-05T07:12:53.294Z,11.07
2022-08-05T07:16:01.733Z,12.48
2022-08-05T07:18:28.936Z,10.20
2022-08-05T07:20:56.092Z,8.00
2022-08-05T07:23:26.554Z,7.03
2022-08-05T07:25:57.001Z,10.80
2022-08-05T07:28:25.047Z,7.85
2022-08-05T07:30:54.814Z,10.07
2022-08-05T07:33:36.526Z,8.52
2022-08-05T07:36:20.174Z,9.70
2022-08-05T07:38:48.912Z,8.98
2022-08-05T07:42:13.074Z,9.23
2022-08-05T07:44:14.166Z,8.68
2022-08-05T07:46:47.408Z,9.60
2022-08-05T07:49:16.099Z,8.85
2022-08-05T07:51:54.507Z,8.52
2022-08-05T07:54:31.002Z,8.35
2022-08-05T07:57:16.709Z,10.38
2022-08-05T07:59:49.184Z,11.18
2022-08-05T08:02:17.570Z,8.55
2022-08-05T08:04:47.073Z,8.88
2022-08-05T08:07:15.109Z,12.00
2022-08-05T08:09:44.439Z,12.57
2022-08-05T08:12:35.057Z,10.63
2022-08-05T08:15:02.081Z,12.15
2022-08-05T08:17:30.258Z,12.10
2022-08-05T08:20:42.650Z,15.57
2022-08-05T08:22:43.492Z,19.10
2022-08-05T08:25:15.882Z,18.20
2022-08-05T08:27:47.561Z,15.60
2022-08-05T08:30:29.704Z,14.80
2022-08-05T08:33:09.082Z,15.77
2022-08-05T08:35:41.546Z,16.73
2022-08-05T08:38:19.078Z,17.65
2022-08-05T08:41:06.174Z,16.33
2022-08-05T08:45:20.786Z,18.45
2022-08-05T08:46:23.759Z,17.77
2022-08-05T08:49:07.737Z,14.40
2022-08-05T08:52:02.983Z,19.08
2022-08-05T08:54:27.671Z,18.48
2022-08-05T08:56:54.383Z,19.65
2022-08-05T08:59:23.614Z,17.80
2022-08-05T09:01:57.499Z,16.15
2022-08-05T09:04:30.106Z,13.57
2022-08-05T09:06:58.313Z,13.88
2022-08-05T09:09:26.105Z,11.80
2022-08-05T09:12:14.386Z,10.55
2022-08-05T09:14:57.983Z,11.60
2022-08-05T09:17:42.733Z,10.00
2022-08-05T09:20:13.099Z,10.10
2022-08-05T09:23:07.545Z,9.95
2022-08-05T09:26:00.818Z,8.95
2022-08-05T09:28:32.102Z,8.90
2022-08-05T09:31:22.151Z,9.63
2022-08-05T09:34:01.378Z,8.55
2022-08-05T09:36:54.637Z,7.78
2022-08-05T09:39:24.572Z,7.70
2022-08-05T09:42:07.840Z,6.85
2022-08-05T09:44:50.615Z,7.07
2022-08-05T09:47:24.019Z,6.75
2022-08-05T09:50:02.382Z,7.93
2022-08-05T09:52:35.403Z,8.10
2022-08-05T09:55:56.125Z,7.15
2022-08-05T09:57:59.935Z,8.07
2022-08-05T10:00:27.796Z,7.82
2022-08-05T10:02:58.352Z,8.05
2022-08-05T10:05:27.700Z,7.63
2022-08-05T10:08:36.631Z,9.18
2022-08-05T10:10:50.294Z,8.50
2022-08-05T10:13:47.159Z,8.20
2022-08-05T10:16:34.058Z,8.93
2022-08-05T10:19:08.541Z,7.13
2022-08-05T10:21:40.141Z,9.60
2022-08-05T10:24:12.884Z,8.85
2022-08-05T10:26:51.344Z,8.52
2022-08-05T10:30:05.734Z,11.13
2022-08-05T10:32:52.798Z,10.20
2022-08-05T10:35:00.604Z,9.00
2022-08-05T10:37:37.477Z,11.13
2022-08-05T10:40:30.496Z,9.13
2022-08-05T10:43:11.193Z,9.65
2022-08-05T10:45:41.878Z,10.13
2022-08-05T10:48:52.380Z,8.82
2022-08-05T10:51:28.909Z,8.80
2022-08-05T10:53:58.528Z,8.95
2022-08-05T10:56:29.749Z,9.80
2022-08-05T10:59:06.992Z,9.23
2022-08-05T11:01:55.418Z,8.80
2022-08-05T11:04:30.844Z,10.45
2022-08-05T11:07:01.376Z,9.93
2022-08-05T11:09:45.211Z,9.43
2022-08-05T11:12:37.256Z,9.48
2022-08-05T11:15:19.565Z,10.55
2022-08-05T11:17:57.970Z,9.88
2022-08-05T11:20:34.857Z,10.25
2022-08-05T11:23:33.303Z,10.40
2022-08-05T11:26:28.927Z,10.45
2022-08-05T11:29:11.450Z,8.98
2022-08-05T11:31:57.742Z,9.90
2022-08-05T11:34:38.704Z,9.15
2022-08-05T11:37:55.151Z,11.77
2022-08-05T11:40:00.557Z,10.35
2022-08-05T11:42:38.060Z,9.80
2022-08-05T11:45:14.590Z,9.63
2022-08-05T11:47:54.852Z,10.40
2022-08-05T11:50:22.156Z,7.72
2022-08-05T11:52:51.099Z,9.45
2022-08-05T11:55:19.815Z,9.05
2022-08-05T11:58:10.061Z,9.75
2022-08-05T12:00:38.538Z,9.45
2022-08-05T12:03:16.715Z,9.73
2022-08-05T12:05:59.097Z,8.25
2022-08-05T12:08:26.524Z,7.90
2022-08-05T12:10:57.619Z,8.18
2022-08-05T12:13:48.360Z,6.55
2022-08-05T12:16:19.324Z,5.95
2022-08-05T12:18:49.465Z,5.85
2022-08-05T12:21:42.827Z,6.43
2022-08-05T12:24:13.828Z,6.50
2022-08-05T12:26:52.689Z,7.88
2022-08-05T12:29:23.630Z,7.20
2022-08-05T12:31:58.417Z,10.13
2022-08-05T12:34:37.156Z,8.38
2022-08-05T12:37:10.842Z,10.13
2022-08-05T12:39:45.145Z,9.25
2022-08-05T12:42:19.812Z,7.35
2022-08-05T12:44:47.464Z,7.03
2022-08-05T12:47:26.567Z,6.82
2022-08-05T12:50:03.389Z,6.35
2022-08-05T12:52:41.770Z,6.28
2022-08-05T12:55:25.654Z,5.28
2022-08-05T12:58:52.493Z,5.28
2022-08-05T13:02:03.862Z,5.22
2022-08-05T13:03:41.702Z,5.07
2022-08-05T13:06:13.678Z,5.75
2022-08-05T13:08:40.508Z,5.55
2022-08-05T13:11:18.020Z,4.93
2022-08-05T13:14:10.394Z,4.75
2022-08-05T13:16:56.682Z,4.22
2022-08-05T13:19:26.095Z,3.50
2022-08-05T13:21:56.740Z,3.53
2022-08-05T13:24:44.914Z,3.42
2022-08-05T13:27:11.340Z,3.72
2022-08-05T13:29:59.361Z,3.88
2022-08-05T13:32:33.992Z,4.82
2022-08-05T13:35:03.107Z,3.60
2022-08-05T13:37:34.940Z,3.63
2022-08-05T13:40:16.400Z,3.65
2022-08-05T13:42:46.989Z,5.22
2022-08-05T13:45:13.587Z,4.10
2022-08-05T13:48:09.711Z,3.33
2022-08-05T13:50:34.246Z,3.20
2022-08-05T13:53:00.968Z,2.90
2022-08-05T13:55:41.774Z,3.88
2022-08-05T13:58:14.279Z,3.33
2022-08-05T14:00:58.317Z,2.35
2022-08-05T14:03:29.879Z,2.42
2022-08-05T14:06:25.747Z,1.90
2022-08-05T14:08:45.792Z,2.25
2022-08-05T14:11:21.045Z,4.30
2022-08-05T14:13:48.659Z,2.40
2022-08-05T14:16:21.750Z,2.47
2022-08-05T14:18:48.512Z,2.60
2022-08-05T14:22:09.094Z,3.17
2022-08-05T14:24:02.750Z,2.58
2022-08-05T14:26:38.352Z,3.80
2022-08-05T14:29:16.665Z,2.45
2022-08-05T14:32:03.945Z,2.75
2022-08-05T14:34:35.451Z,2.08
2022-08-05T14:37:03.471Z,2.25
2022-08-05T14:39:31.826Z,3.92
2022-08-05T14:42:20.702Z,1.67
2022-08-05T14:44:48.284Z,2.55
2022-08-05T14:47:15.379Z,2.03
2022-08-05T14:49:59.199Z,2.20
2022-08-05T14:52:52.031Z,1.60
2022-08-05T14:55:15.544Z,1.45
2022-08-05T14:57:56.335Z,2.30
2022-08-05T15:00:27.805Z,1.80
2022-08-05T15:02:56.494Z,2.53
2022-08-05T15:05:30.065Z,2.00
2022-08-05T15:08:09.008Z,1.73
2022-08-05T15:10:43.305Z,3.47
2022-08-05T15:13:12.674Z,2.33
2022-08-05T15:15:55.106Z,2.13
2022-08-05T15:18:22.731Z,2.22
2022-08-05T15:20:49.841Z,2.28
2022-08-05T15:23:18.071Z,2.17
2022-08-05T15:25:52.279Z,2.50
2022-08-05T15:28:23.029Z,2.72
2022-08-05T15:30:54.722Z,2.58
2022-08-05T15:34:04.847Z,2.88
2022-08-05T15:36:16.752Z,3.05
2022-08-05T15:38:45.013Z,2.90
2022-08-05T15:41:21.064Z,2.65
2022-08-05T15:43:50.272Z,2.88
2022-08-05T15:46:18.875Z,3.28
2022-08-05T15:48:52.700Z,3.08
2022-08-05T15:52:12.459Z,2.83
2022-08-05T15:54:16.007Z,2.85
2022-08-05T15:56:42.786Z,3.45
2022-08-05T15:59:10.570Z,5.20
2022-08-05T16:01:52.526Z,2.90
2022-08-05T16:04:25.449Z,2.33
2022-08-05T16:06:53.950Z,3.95
2022-08-05T16:09:23.007Z,2.63
2022-08-05T16:11:52.766Z,2.88
2022-08-05T16:14:19.819Z,2.67
2022-08-05T16:16:47.279Z,2.67
2022-08-05T16:19:25.449Z,3.13
2022-08-05T16:22:02.937Z,2.50
2022-08-05T16:24:41.205Z,3.53
2022-08-05T16:27:09.119Z,3.03
2022-08-05T16:29:37.306Z,2.80
2022-08-05T16:32:05.173Z,3.05
2022-08-05T16:34:32.418Z,3.10
2022-08-05T16:36:59.082Z,2.83
2022-08-05T16:40:05.961Z,3.05
2022-08-05T16:42:17.598Z,2.80
2022-08-05T16:44:54.058Z,2.75
2022-08-05T16:47:28.619Z,3.83
2022-08-05T16:50:03.005Z,2.80
2022-08-05T16:52:33.403Z,2.78
2022-08-05T16:55:00.316Z,4.25
2022-08-05T16:57:53.646Z,2.50
2022-08-05T17:00:14.253Z,3.13
2022-08-05T17:02:53.323Z,2.53
2022-08-05T17:05:19.882Z,2.80
2022-08-05T17:07:54.520Z,3.08
2022-08-05T17:10:21.583Z,3.65
2022-08-05T17:12:54.674Z,2.80
2022-08-05T17:15:21.454Z,3.10
2022-08-05T17:17:55.093Z,3.22
2022-08-05T17:20:22.170Z,2.80
2022-08-05T17:22:55.202Z,3.17
2022-08-05T17:25:39.191Z,2.83
2022-08-05T17:28:07.828Z,2.90
2022-08-05T17:30:50.413Z,3.20
2022-08-05T17:33:18.382Z,3.78
2022-08-05T17:36:07.299Z,3.22
2022-08-05T17:38:33.114Z,3.50
2022-08-05T17:40:59.722Z,3.28
2022-08-05T17:43:46.769Z,2.53
2022-08-05T17:46:12.887Z,2.63
2022-08-05T17:48:40.374Z,2.42
2022-08-05T17:51:11.491Z,2.30
2022-08-05T17:53:39.495Z,3.53
2022-08-05T17:56:09.281Z,2.35
2022-08-05T17:58:37.655Z,2.20
2022-08-05T18:01:04.349Z,2.78
2022-08-05T18:04:03.938Z,4.22
2022-08-05T18:06:29.509Z,2.03
2022-08-05T18:08:58.330Z,1.90
2022-08-05T18:11:32.889Z,1.67
2022-08-05T18:14:07.095Z,3.25
2022-08-05T18:16:50.905Z,2.08
2022-08-05T18:19:22.812Z,1.75
2022-08-05T18:22:09.296Z,2.13
2022-08-05T18:24:37.654Z,3.15
2022-08-05T18:27:06.869Z,1.98
2022-08-05T18:29:44.864Z,3.47
2022-08-05T18:32:17.230Z,2.47
2022-08-05T18:34:44.024Z,1.75
2022-08-05T18:37:16.955Z,1.50
2022-08-05T18:40:34.496Z,2.50
2022-08-05T18:43:02.489Z,2.20
2022-08-05T18:45:41.416Z,2.53
2022-08-05T18:48:11.500Z,1.05
2022-08-05T18:50:57.157Z,0.90
2022-08-05T18:53:29.443Z,1.45
2022-08-05T18:56:01.337Z,0.80
2022-08-05T18:58:29.050Z,0.90
2022-08-05T19:00:56.456Z,1.58
2022-08-05T19:03:53.353Z,0.63
2022-08-05T19:06:18.550Z,0.75
2022-08-05T19:08:48.307Z,1.17
2022-08-05T19:11:14.937Z,0.57
2022-08-05T19:13:41.482Z,0.70
2022-08-05T19:16:25.046Z,0.70
2022-08-05T19:18:56.842Z,0.77
2022-08-05T19:21:29.425Z,0.70
2022-08-05T19:24:07.957Z,1.02
2022-08-05T19:26:36.554Z,0.88
2022-08-05T19:29:21.140Z,0.70
2022-08-05T19:31:50.797Z,0.85
2022-08-05T19:34:18.649Z,0.90
2022-08-05T19:36:45.414Z,1.33
2022-08-05T19:39:13.982Z,1.85
2022-08-05T19:42:05.662Z,1.73
2022-08-05T19:44:30.473Z,0.98
2022-08-05T19:46:57.040Z,1.48
2022-08-05T19:49:24.287Z,0.90
2022-08-05T19:52:04.733Z,0.80
2022-08-05T19:54:35.493Z,14.43
2022-08-05T19:57:06.451Z,8.52
2022-08-05T19:59:59.629Z,2.88
2022-08-05T20:02:26.031Z,1.30
2022-08-05T20:04:52.991Z,2.63
2022-08-05T20:07:46.428Z,0.90
2022-08-05T20:10:13.230Z,2.13
2022-08-05T20:12:48.122Z,3.50
2022-08-05T20:15:23.302Z,8.07
2022-08-05T20:18:10.147Z,2.97
2022-08-05T20:20:56.152Z,1.70
2022-08-05T20:23:40.409Z,8.23
2022-08-05T20:26:15.295Z,1.38
2022-08-05T20:28:44.334Z,0.70
2022-08-05T20:31:11.315Z,1.42
2022-08-05T20:33:38.019Z,0.77
2022-08-05T20:36:10.160Z,1.33
2022-08-05T20:38:37.876Z,0.90
2022-08-05T20:41:08.426Z,1.35
2022-08-05T20:43:58.648Z,1.45
2022-08-05T20:46:25.154Z,1.75
2022-08-05T20:48:52.330Z,0.95
2022-08-05T20:51:18.925Z,1.10
2022-08-05T20:53:56.580Z,1.30
2022-08-05T20:56:29.949Z,1.27
2022-08-05T20:59:04.164Z,1.63
2022-08-05T21:01:41.125Z,1.20
2022-08-05T21:04:10.403Z,2.00
2022-08-05T21:06:38.288Z,1.58
2022-08-05T21:09:14.324Z,1.05
2022-08-05T21:12:09.032Z,0.93
2022-08-05T21:14:29.400Z,0.80
2022-08-05T21:17:01.552Z,1.48
2022-08-05T21:19:29.623Z,1.08
2022-08-05T21:22:14.437Z,1.02
2022-08-05T21:24:41.064Z,1.83
2022-08-05T21:27:09.248Z,1.83
2022-08-05T21:29:40.565Z,1.00
2022-08-05T21:32:07.636Z,0.90
2022-08-05T21:34:35.571Z,1.40
2022-08-05T21:37:02.509Z,2.70
2022-08-05T21:39:29.221Z,1.05
2022-08-05T21:42:01.852Z,2.35
2022-08-05T21:44:29.925Z,1.05
2022-08-05T21:46:58.187Z,1.55
2022-08-05T21:49:58.932Z,1.15
2022-08-05T21:52:15.837Z,1.00
2022-08-05T21:54:51.907Z,1.10
2022-08-05T21:57:31.649Z,0.93
2022-08-05T22:00:05.531Z,1.40
2022-08-05T22:02:33.718Z,1.42
2022-08-05T22:05:00.363Z,1.88
2022-08-05T22:07:40.229Z,1.60
2022-08-05T22:10:16.327Z,2.03
2022-08-05T22:12:45.120Z,1.20
2022-08-05T22:16:00.686Z,1.42
2022-08-05T22:18:04.928Z,1.48
2022-08-05T22:20:31.572Z,1.40
2022-08-05T22:23:17.408Z,1.70
2022-08-05T22:26:10.524Z,1.92
2022-08-05T22:28:38.723Z,1.00
2022-08-05T22:31:05.960Z,1.45
2022-08-05T22:33:56.705Z,1.10
2022-08-05T22:36:24.133Z,1.65
2022-08-05T22:38:51.294Z,1.10
2022-08-05T22:42:04.480Z,1.27
2022-08-05T22:44:07.690Z,2.42
2022-08-05T22:46:34.255Z,1.60
2022-08-05T22:49:23.058Z,1.40
2022-08-05T22:52:05.105Z,1.30
2022-08-05T22:54:34.961Z,2.15
2022-08-05T22:57:01.572Z,1.20
2022-08-05T22:59:45.082Z,1.90
2022-08-05T23:02:16.953Z,1.50
2022-08-05T23:04:51.929Z,1.45
2022-08-05T23:07:21.925Z,1.40
2022-08-05T23:09:53.419Z,1.30
2022-08-05T23:12:25.395Z,2.13
2022-08-05T23:14:55.252Z,1.20
2022-08-05T23:17:34.480Z,1.65
2022-08-05T23:20:16.732Z,1.60
2022-08-05T23:22:47.661Z,1.60
2022-08-05T23:25:17.624Z,1.75
2022-08-05T23:28:04.006Z,2.08
2022-08-05T23:30:40.103Z,1.60
2022-08-05T23:33:22.077Z,2.30
2022-08-05T23:35:56.016Z,1.77
2022-08-05T23:38:23.412Z,1.70
2022-08-05T23:40:52.674Z,1.60
2022-08-05T23:43:25.229Z,1.73
2022-08-05T23:46:21.105Z,2.50
2022-08-05T23:49:00.973Z,1.60
2022-08-05T23:51:54.367Z,2.63
2022-08-05T23:54:25.860Z,1.60
2022-08-05T23:57:03.267Z,2.10
